Time;durP1;ratioP1;P1;durP2;ratioP2;P2;SDS_P1;SDS_P2;PMS_P1;PMS_P2;Temp;Humidity;BMP_temperature;BMP_pressure;BME280_temperature;BME280_humidity;BME280_pressure;Samples;Min_cycle;Max_cycle;Signal;HPM_P1;HPM_P2
2023/11/06 00:00:04;;;;;;;4.32;1.17;;;;;;;;;;5091383;28;20048;-64
2023/11/06 00:02:35;;;;;;;5.68;1.35;;;;;;;;;;5091863;28;20510;-63
2023/11/06 00:05:04;;;;;;;4.20;1.38;;;;;;;;;;5091618;28;20138;-63
2023/11/06 00:07:31;;;;;;;5.18;1.48;;;;;;;;;;5091893;28;20052;-63
2023/11/06 00:09:59;;;;;;;6.15;1.83;;;;;;;;;;5091168;28;20052;-63
2023/11/06 00:12:26;;;;;;;6.40;2.13;;;;;;;;;;5091960;28;20392;-63
2023/11/06 00:14:53;;;;;;;5.13;1.73;;;;;;;;;;5091352;28;20393;-63
2023/11/06 00:17:20;;;;;;;4.20;1.83;;;;;;;;;;5091779;28;20063;-63
2023/11/06 00:19:46;;;;;;;6.13;1.60;;;;;;;;;;5091064;28;20052;-63
2023/11/06 00:22:13;;;;;;;5.13;1.15;;;;;;;;;;5091717;28;20056;-62
2023/11/06 00:24:40;;;;;;;6.25;1.55;;;;;;;;;;5091841;28;20401;-63
2023/11/06 00:27:08;;;;;;;4.68;1.45;;;;;;;;;;5091775;28;20055;-63
2023/11/06 00:29:35;;;;;;;9.32;1.70;;;;;;;;;;5091922;28;20377;-63
2023/11/06 00:32:03;;;;;;;5.90;1.88;;;;;;;;;;5091398;28;20048;-65
2023/11/06 00:34:30;;;;;;;4.88;1.40;;;;;;;;;;5091366;28;20070;-64
2023/11/06 00:37:00;;;;;;;4.38;1.55;;;;;;;;;;5091469;28;20052;-63
2023/11/06 00:39:27;;;;;;;3.33;1.33;;;;;;;;;;5091547;28;20052;-63
2023/11/06 00:41:54;;;;;;;4.68;1.35;;;;;;;;;;5093581;28;20060;-63
2023/11/06 00:44:22;;;;;;;7.28;1.30;;;;;;;;;;5095094;28;20048;-64
2023/11/06 00:46:49;;;;;;;4.93;1.48;;;;;;;;;;5095021;28;20075;-64
2023/11/06 00:49:18;;;;;;;4.90;1.35;;;;;;;;;;5094729;28;20048;-63
2023/11/06 00:51:49;;;;;;;4.63;1.50;;;;;;;;;;5094627;28;20365;-63
2023/11/06 00:54:16;;;;;;;6.78;1.60;;;;;;;;;;5094610;28;20052;-63
2023/11/06 00:56:43;;;;;;;7.57;1.65;;;;;;;;;;5094593;28;20055;-63
2023/11/06 00:59:11;;;;;;;6.80;1.90;;;;;;;;;;5094474;28;20052;-63
2023/11/06 01:01:39;;;;;;;4.78;1.40;;;;;;;;;;5094556;28;20043;-63
2023/11/06 01:04:09;;;;;;;5.35;1.25;;;;;;;;;;5094191;28;20075;-63
2023/11/06 01:06:36;;;;;;;5.97;1.50;;;;;;;;;;5094475;28;20052;-63
2023/11/06 01:09:04;;;;;;;4.85;1.52;;;;;;;;;;5094247;28;20056;-63
2023/11/06 01:11:31;;;;;;;4.57;1.42;;;;;;;;;;5093951;28;20067;-63
2023/11/06 01:13:57;;;;;;;4.82;1.33;;;;;;;;;;5094847;28;20048;-63
2023/11/06 01:16:24;;;;;;;6.95;1.40;;;;;;;;;;5094268;28;20048;-63
2023/11/06 01:18:52;;;;;;;6.75;1.48;;;;;;;;;;5094507;28;20052;-63
2023/11/06 01:21:19;;;;;;;9.95;1.50;;;;;;;;;;5094223;28;20048;-63
2023/11/06 01:23:46;;;;;;;5.63;1.35;;;;;;;;;;5094127;28;20381;-63
2023/11/06 01:26:13;;;;;;;4.43;1.38;;;;;;;;;;5094204;28;20055;-63
2023/11/06 01:28:40;;;;;;;4.32;1.60;;;;;;;;;;5094409;28;20052;-63
2023/11/06 01:31:07;;;;;;;9.95;1.75;;;;;;;;;;5094073;28;20350;-63
2023/11/06 01:33:33;;;;;;;4.22;1.17;;;;;;;;;;5093850;28;20493;-63
2023/11/06 01:36:03;;;;;;;8.13;1.88;;;;;;;;;;5094082;28;20385;-63
2023/11/06 01:38:30;;;;;;;;;;;;;;;;;;5094124;28;20048;-63
2023/11/06 01:40:57;;;;;;;8.15;1.70;;;;;;;;;;5094502;28;19920;-63
2023/11/06 01:43:24;;;;;;;5.18;1.58;;;;;;;;;;5093719;28;20048;-64
2023/11/06 01:45:51;;;;;;;8.27;1.67;;;;;;;;;;5093869;28;20568;-63
2023/11/06 01:48:18;;;;;;;5.57;1.60;;;;;;;;;;5093575;28;20063;-63
2023/11/06 01:50:45;;;;;;;7.07;1.77;;;;;;;;;;5093179;28;20063;-63
2023/11/06 01:53:17;;;;;;;4.75;1.35;;;;;;;;;;5092970;28;20052;-63
2023/11/06 01:55:44;;;;;;;4.00;1.63;;;;;;;;;;5093746;28;20403;-63
2023/11/06 01:58:12;;;;;;;3.85;1.20;;;;;;;;;;5093600;28;20413;-63
2023/11/06 02:00:39;;;;;;;3.80;1.13;;;;;;;;;;5093010;28;20052;-63
2023/11/06 02:03:06;;;;;;;4.13;1.33;;;;;;;;;;5093314;28;20051;-64
2023/11/06 02:05:33;;;;;;;6.20;1.55;;;;;;;;;;5093047;28;20056;-63
2023/11/06 02:08:01;;;;;;;5.50;1.80;;;;;;;;;;5093456;28;20063;-63
2023/11/06 02:10:31;;;;;;;5.85;1.52;;;;;;;;;;5093269;28;20078;-63
2023/11/06 02:12:58;;;;;;;5.25;1.10;;;;;;;;;;5092954;28;20051;-63
2023/11/06 02:15:28;;;;;;;3.08;1.20;;;;;;;;;;5092785;28;20063;-63
2023/11/06 02:17:56;;;;;;;3.50;1.60;;;;;;;;;;5093178;28;20052;-63
2023/11/06 02:20:23;;;;;;;3.80;1.15;;;;;;;;;;5093303;28;20056;-63
2023/11/06 02:22:52;;;;;;;4.28;1.55;;;;;;;;;;5093075;28;20055;-63
2023/11/06 02:25:22;;;;;;;3.28;1.55;;;;;;;;;;5093250;28;20063;-63
2023/11/06 02:27:48;;;;;;;5.93;1.55;;;;;;;;;;5093112;28;20059;-63
2023/11/06 02:30:15;;;;;;;4.28;1.52;;;;;;;;;;5092813;28;20174;-63
2023/11/06 02:32:42;;;;;;;5.07;1.40;;;;;;;;;;5093232;28;20385;-64
2023/11/06 02:35:09;;;;;;;5.13;1.33;;;;;;;;;;5093174;28;20044;-63
2023/11/06 02:37:36;;;;;;;7.55;1.20;;;;;;;;;;5092729;28;20051;-63
2023/11/06 02:40:06;;;;;;;6.07;1.80;;;;;;;;;;5092562;28;20394;-64
2023/11/06 02:42:32;;;;;;;;;;;;;;;;;;5093587;28;20048;-63
2023/11/06 02:45:02;;;;;;;5.05;1.33;;;;;;;;;;5093106;28;19927;-65
2023/11/06 02:47:28;;;;;;;5.78;1.52;;;;;;;;;;5093024;28;20052;-64
2023/11/06 02:49:55;;;;;;;4.45;1.40;;;;;;;;;;5092120;28;20075;-64
2023/11/06 02:52:22;;;;;;;4.70;1.27;;;;;;;;;;5092860;28;20055;-64
2023/11/06 02:54:50;;;;;;;3.83;1.10;;;;;;;;;;5092742;28;20113;-65
2023/11/06 02:57:17;;;;;;;5.60;1.63;;;;;;;;;;5092845;28;20047;-65
2023/11/06 02:59:43;;;;;;;4.10;1.25;;;;;;;;;;5092972;28;20055;-65
2023/11/06 03:02:12;;;;;;;4.97;1.30;;;;;;;;;;5092190;28;20052;-65
2023/11/06 03:04:39;;;;;;;3.83;1.10;;;;;;;;;;5092458;28;20052;-65
2023/11/06 03:07:06;;;;;;;2.75;1.25;;;;;;;;;;5089346;28;20055;-65
2023/11/06 03:09:33;;;;;;;5.10;1.30;;;;;;;;;;5071949;28;20048;-65
2023/11/06 03:12:00;;;;;;;4.20;1.08;;;;;;;;;;5055085;28;20052;-65
2023/11/06 03:14:27;;;;;;;4.43;1.30;;;;;;;;;;5071105;28;20055;-65
2023/11/06 03:16:53;;;;;;;6.00;1.40;;;;;;;;;;5071767;28;20059;-65
2023/11/06 03:19:22;;;;;;;4.55;1.42;;;;;;;;;;5072349;28;20068;-65
2023/11/06 03:21:49;;;;;;;5.03;1.65;;;;;;;;;;5072248;28;20064;-65
2023/11/06 03:24:16;;;;;;;4.57;1.48;;;;;;;;;;5072104;28;20405;-65
2023/11/06 03:26:43;;;;;;;4.03;1.55;;;;;;;;;;5072396;28;20059;-64
2023/11/06 03:29:09;;;;;;;3.75;1.20;;;;;;;;;;5071767;28;20056;-64
2023/11/06 03:31:36;;;;;;;3.40;1.40;;;;;;;;;;5071963;28;20056;-64
2023/11/06 03:34:06;;;;;;;5.00;1.30;;;;;;;;;;5072010;28;20055;-64
2023/11/06 03:36:40;;;;;;;5.80;1.58;;;;;;;;;;5071650;28;20056;-64
2023/11/06 03:39:07;;;;;;;3.03;1.00;;;;;;;;;;5071931;28;20351;-64
2023/11/06 03:41:34;;;;;;;4.07;1.23;;;;;;;;;;5071886;28;20068;-63
2023/11/06 03:44:01;;;;;;;3.47;1.00;;;;;;;;;;5071786;28;20394;-64
2023/11/06 03:46:28;;;;;;;3.60;1.00;;;;;;;;;;5071811;28;20048;-64
2023/11/06 03:48:55;;;;;;;2.75;1.10;;;;;;;;;;5071798;28;20049;-64
2023/11/06 03:51:22;;;;;;;4.90;1.40;;;;;;;;;;5071758;28;20052;-64
2023/11/06 03:53:50;;;;;;;3.88;1.20;;;;;;;;;;5071756;28;20063;-64
2023/11/06 03:56:17;;;;;;;2.85;1.25;;;;;;;;;;5071641;28;20056;-64
2023/11/06 03:58:44;;;;;;;3.42;1.00;;;;;;;;;;5071751;28;20049;-64
2023/11/06 04:01:10;;;;;;;3.42;1.48;;;;;;;;;;5071814;28;20048;-64
2023/11/06 04:03:37;;;;;;;3.47;1.17;;;;;;;;;;5088942;28;20128;-64
2023/11/06 04:06:05;;;;;;;3.88;1.20;;;;;;;;;;5091929;28;20052;-64
2023/11/06 04:08:32;;;;;;;4.65;1.48;;;;;;;;;;5091943;28;20438;-64
2023/11/06 04:11:00;;;;;;;3.42;1.17;;;;;;;;;;5091482;28;20087;-64
2023/11/06 04:13:27;;;;;;;4.75;1.20;;;;;;;;;;5091509;28;20055;-64
2023/11/06 04:15:54;;;;;;;3.55;1.23;;;;;;;;;;5092278;28;20075;-64
2023/11/06 04:18:23;;;;;;;4.22;1.23;;;;;;;;;;5095013;28;20056;-64
2023/11/06 04:20:50;;;;;;;4.72;1.25;;;;;;;;;;5095857;28;20484;-64
2023/11/06 04:23:16;;;;;;;3.40;1.10;;;;;;;;;;5095124;28;20412;-64
2023/11/06 04:25:48;;;;;;;5.40;1.30;;;;;;;;;;5095655;28;20048;-64
2023/11/06 04:28:16;;;;;;;6.68;1.40;;;;;;;;;;5095648;28;20410;-63
2023/11/06 04:30:43;;;;;;;3.92;1.42;;;;;;;;;;5094403;28;20489;-64
2023/11/06 04:33:13;;;;;;;5.43;1.27;;;;;;;;;;5095155;28;20059;-63
2023/11/06 04:35:40;;;;;;;4.72;1.30;;;;;;;;;;5095028;28;20059;-63
2023/11/06 04:38:07;;;;;;;5.22;1.35;;;;;;;;;;5095055;28;20496;-63
2023/11/06 04:40:34;;;;;;;4.82;1.45;;;;;;;;;;5094571;28;20075;-63
2023/11/06 04:43:01;;;;;;;3.42;1.33;;;;;;;;;;5095086;28;20147;-63
2023/11/06 04:45:29;;;;;;;2.90;1.08;;;;;;;;;;5094597;28;20052;-63
2023/11/06 04:47:56;;;;;;;4.35;1.30;;;;;;;;;;5095303;28;20071;-63
2023/11/06 04:50:22;;;;;;;5.03;1.35;;;;;;;;;;5094538;28;20060;-63
2023/11/06 04:52:49;;;;;;;7.18;1.20;;;;;;;;;;5095269;28;20044;-63
2023/11/06 04:55:16;;;;;;;3.65;1.20;;;;;;;;;;5094911;28;20063;-63
2023/11/06 04:57:43;;;;;;;2.72;1.10;;;;;;;;;;5095166;28;20056;-63
2023/11/06 05:00:10;;;;;;;3.15;1.25;;;;;;;;;;5094534;28;20052;-63
2023/11/06 05:02:38;;;;;;;4.68;1.52;;;;;;;;;;5095181;28;20052;-63
2023/11/06 05:05:06;;;;;;;6.68;1.60;;;;;;;;;;5094697;28;20048;-63
2023/11/06 05:07:33;;;;;;;3.22;1.17;;;;;;;;;;5094973;28;20062;-63
2023/11/06 05:10:00;;;;;;;4.32;1.20;;;;;;;;;;5094778;28;20081;-63
2023/11/06 05:12:27;;;;;;;4.05;1.25;;;;;;;;;;5094416;28;20056;-62
2023/11/06 05:14:53;;;;;;;5.00;1.40;;;;;;;;;;5094466;28;20055;-62
2023/11/06 05:17:20;;;;;;;4.75;1.23;;;;;;;;;;5094292;28;20052;-61
2023/11/06 05:19:48;;;;;;;3.83;1.25;;;;;;;;;;5094099;28;20052;-62
2023/11/06 05:22:15;;;;;;;5.63;1.45;;;;;;;;;;5094330;28;20365;-61
2023/11/06 05:24:42;;;;;;;4.25;1.30;;;;;;;;;;5093715;28;20053;-62
2023/11/06 05:27:09;;;;;;;10.95;1.30;;;;;;;;;;5093669;28;20063;-61
2023/11/06 05:29:36;;;;;;;5.75;1.70;;;;;;;;;;5093267;28;20052;-62
2023/11/06 05:32:03;;;;;;;2.65;1.30;;;;;;;;;;5094144;28;20048;-61
2023/11/06 05:34:30;;;;;;;6.43;1.40;;;;;;;;;;5093720;28;20044;-63
2023/11/06 05:36:58;;;;;;;4.50;1.50;;;;;;;;;;5093757;28;20074;-62
2023/11/06 05:39:25;;;;;;;6.38;1.70;;;;;;;;;;5093907;28;20078;-61
2023/11/06 05:41:52;;;;;;;4.45;1.40;;;;;;;;;;5094412;28;20504;-62
2023/11/06 05:44:18;;;;;;;3.03;1.15;;;;;;;;;;5093773;28;20470;-61
2023/11/06 05:46:45;;;;;;;4.72;1.50;;;;;;;;;;5093821;28;20373;-63
2023/11/06 05:49:12;;;;;;;5.00;1.50;;;;;;;;;;5093242;28;20052;-63
2023/11/06 05:51:39;;;;;;;4.35;1.83;;;;;;;;;;5093721;28;20048;-61
2023/11/06 05:54:08;;;;;;;5.10;1.70;;;;;;;;;;5093563;28;20048;-63
2023/11/06 05:56:35;;;;;;;6.55;1.48;;;;;;;;;;5093333;28;20056;-62
2023/11/06 05:59:03;;;;;;;3.92;1.45;;;;;;;;;;5093352;28;20079;-64
2023/11/06 06:01:30;;;;;;;4.68;1.73;;;;;;;;;;5093586;28;20055;-63
2023/11/06 06:03:57;;;;;;;6.03;1.98;;;;;;;;;;5093531;28;20051;-62
2023/11/06 06:06:25;;;;;;;5.35;1.77;;;;;;;;;;5092765;28;20063;-63
2023/11/06 06:08:51;;;;;;;8.40;2.05;;;;;;;;;;5093565;28;20055;-63
2023/11/06 06:11:20;;;;;;;7.72;2.22;;;;;;;;;;5092856;28;20059;-62
2023/11/06 06:13:46;;;;;;;8.13;2.40;;;;;;;;;;5093284;28;20055;-63
2023/11/06 06:16:14;;;;;;;8.00;2.10;;;;;;;;;;5093074;28;20051;-63
2023/11/06 06:18:41;;;;;;;8.02;2.28;;;;;;;;;;5092617;28;20068;-63
2023/11/06 06:21:07;;;;;;;6.13;1.65;;;;;;;;;;5092773;28;20059;-62
2023/11/06 06:23:34;;;;;;;6.82;2.70;;;;;;;;;;5092715;28;20052;-62
2023/11/06 06:26:01;;;;;;;7.22;2.40;;;;;;;;;;5092896;28;20048;-63
2023/11/06 06:28:29;;;;;;;7.40;2.20;;;;;;;;;;5093262;28;20048;-62
2023/11/06 06:30:56;;;;;;;8.73;2.33;;;;;;;;;;5092996;28;20052;-63
2023/11/06 06:33:23;;;;;;;6.93;2.13;;;;;;;;;;5092415;28;20063;-63
2023/11/06 06:35:50;;;;;;;8.95;2.15;;;;;;;;;;5092506;28;20055;-62
2023/11/06 06:38:18;;;;;;;8.02;2.90;;;;;;;;;;5092184;28;20389;-61
2023/11/06 06:40:49;;;;;;;8.20;2.45;;;;;;;;;;5092181;28;20063;-62
2023/11/06 06:43:15;;;;;;;8.35;2.22;;;;;;;;;;5092842;28;20055;-63
2023/11/06 06:45:45;;;;;;;17.13;2.92;;;;;;;;;;5092121;28;20055;-62
2023/11/06 06:48:11;;;;;;;9.77;2.83;;;;;;;;;;5092811;28;20047;-62
2023/11/06 06:50:38;;;;;;;9.52;2.75;;;;;;;;;;5078937;28;20060;-62
2023/11/06 06:53:05;;;;;;;9.68;2.90;;;;;;;;;;5072074;28;20048;-62
2023/11/06 06:55:32;;;;;;;11.57;2.78;;;;;;;;;;5071383;28;20059;-62
2023/11/06 06:57:59;;;;;;;14.75;3.05;;;;;;;;;;5063317;28;20437;-61
2023/11/06 07:00:27;;;;;;;13.70;2.60;;;;;;;;;;5072142;28;20052;-62
2023/11/06 07:02:55;;;;;;;8.13;2.75;;;;;;;;;;5072279;28;20056;-62
2023/11/06 07:05:22;;;;;;;8.10;2.78;;;;;;;;;;5072137;28;20052;-62
2023/11/06 07:07:48;;;;;;;11.85;3.05;;;;;;;;;;5072154;28;20058;-62
2023/11/06 07:10:15;;;;;;;12.43;3.03;;;;;;;;;;5072030;28;20049;-64
2023/11/06 07:12:42;;;;;;;9.73;2.40;;;;;;;;;;5072547;28;20057;-62
2023/11/06 07:15:09;;;;;;;10.88;2.63;;;;;;;;;;5066237;28;20144;-61
2023/11/06 07:17:36;;;;;;;8.25;2.60;;;;;;;;;;5059197;28;20391;-61
2023/11/06 07:20:05;;;;;;;8.75;2.90;;;;;;;;;;5066720;28;20060;-40
2023/11/06 07:22:32;;;;;;;13.40;3.67;;;;;;;;;;5068440;28;20048;-39
2023/11/06 07:25:00;;;;;;;9.30;2.90;;;;;;;;;;5059986;28;20052;-40
2023/11/06 07:27:30;;;;;;;10.05;3.08;;;;;;;;;;5067361;28;20056;-40
2023/11/06 07:29:57;;;;;;;11.93;3.22;;;;;;;;;;5063850;28;20065;-65
2023/11/06 07:32:24;;;;;;;8.65;3.22;;;;;;;;;;5062398;28;20485;-66
2023/11/06 07:34:51;;;;;;;10.85;3.25;;;;;;;;;;5062209;28;20053;-66
2023/11/06 07:37:20;;;;;;;8.48;2.65;;;;;;;;;;5064519;28;20617;-66
2023/11/06 07:39:46;;;;;;;9.10;2.53;;;;;;;;;;5060780;28;20053;-66
2023/11/06 07:42:13;;;;;;;9.20;2.78;;;;;;;;;;5067194;28;20059;-66
2023/11/06 07:44:41;;;;;;;10.45;2.67;;;;;;;;;;5062615;28;20048;-66
2023/11/06 07:47:08;;;;;;;13.82;2.65;;;;;;;;;;5066183;28;20809;-66
2023/11/06 07:49:35;;;;;;;10.82;2.67;;;;;;;;;;5072201;28;21705;-66
2023/11/06 07:52:07;;;;;;;11.00;2.80;;;;;;;;;;5104412;28;20071;-67
2023/11/06 07:54:38;;;;;;;8.80;2.88;;;;;;;;;;5101717;28;20052;-66
2023/11/06 07:57:05;;;;;;;11.32;2.67;;;;;;;;;;5097790;28;20078;-66
2023/11/06 07:59:32;;;;;;;7.78;2.13;;;;;;;;;;5097008;28;20055;-66
2023/11/06 08:02:00;;;;;;;9.27;2.40;;;;;;;;;;5099865;28;20056;-67
2023/11/06 08:04:27;;;;;;;9.55;2.75;;;;;;;;;;5098490;28;20067;-66
2023/11/06 08:06:54;;;;;;;11.40;2.88;;;;;;;;;;5102763;28;20056;-66
2023/11/06 08:09:21;;;;;;;11.73;2.47;;;;;;;;;;5104013;28;21784;-66
2023/11/06 08:11:49;;;;;;;9.07;2.38;;;;;;;;;;5100564;28;20070;-66
2023/11/06 08:14:16;;;;;;;10.77;2.72;;;;;;;;;;5104841;28;20052;-66
2023/11/06 08:16:43;;;;;;;10.50;2.65;;;;;;;;;;5109208;28;20052;-66
2023/11/06 08:19:09;;;;;;;8.90;2.17;;;;;;;;;;5106803;28;20059;-66
2023/11/06 08:21:36;;;;;;;6.75;2.10;;;;;;;;;;5101355;28;20158;-66
2023/11/06 08:24:03;;;;;;;8.82;2.72;;;;;;;;;;5105791;28;20067;-66
2023/11/06 08:26:30;;;;;;;8.82;2.10;;;;;;;;;;5093669;28;20059;-67
2023/11/06 08:28:59;;;;;;;11.38;2.70;;;;;;;;;;5099967;28;20059;-66
2023/11/06 08:31:25;;;;;;;9.85;2.83;;;;;;;;;;5101225;28;20051;-66
2023/11/06 08:33:53;;;;;;;12.15;2.38;;;;;;;;;;5089276;28;20404;-66
2023/11/06 08:36:20;;;;;;;9.07;2.13;;;;;;;;;;5108247;28;20052;-66
2023/11/06 08:38:47;;;;;;;12.43;2.70;;;;;;;;;;5087213;28;20044;-66
2023/11/06 08:41:14;;;;;;;8.68;2.53;;;;;;;;;;5104838;28;20052;-66
2023/11/06 08:43:41;;;;;;;7.63;2.20;;;;;;;;;;5095534;28;20218;-66
2023/11/06 08:46:09;;;;;;;8.48;2.22;;;;;;;;;;5098828;28;20044;-66
2023/11/06 08:48:36;;;;;;;7.43;2.08;;;;;;;;;;5087249;28;21429;-66
2023/11/06 08:51:03;;;;;;;9.73;2.22;;;;;;;;;;5093474;28;20143;-67
2023/11/06 08:53:30;;;;;;;8.30;2.50;;;;;;;;;;5094049;28;20079;-66
2023/11/06 08:55:57;;;;;;;11.35;2.53;;;;;;;;;;5113769;28;20055;-66
2023/11/06 08:58:25;;;;;;;9.32;1.85;;;;;;;;;;5082771;28;20155;-66
2023/11/06 09:00:51;;;;;;;7.65;2.20;;;;;;;;;;5092216;28;20119;-67
2023/11/06 09:03:20;;;;;;;7.97;1.85;;;;;;;;;;5081823;28;20071;-66
2023/11/06 09:05:49;;;;;;;9.30;2.10;;;;;;;;;;5086860;28;20055;-67
2023/11/06 09:08:15;;;;;;;7.45;2.03;;;;;;;;;;5086166;28;20504;-66
2023/11/06 09:10:42;;;;;;;6.53;1.75;;;;;;;;;;5096794;28;20141;-66
2023/11/06 09:13:09;;;;;;;7.63;1.85;;;;;;;;;;5086296;28;20048;-67
2023/11/06 09:15:40;;;;;;;7.20;2.05;;;;;;;;;;5089740;28;20045;-66
2023/11/06 09:18:07;;;;;;;6.68;1.83;;;;;;;;;;5092534;28;20051;-67
2023/11/06 09:20:35;;;;;;;6.95;1.77;;;;;;;;;;5095411;28;20428;-67
2023/11/06 09:23:02;;;;;;;8.43;2.22;;;;;;;;;;5088508;28;20442;-66
2023/11/06 09:25:29;;;;;;;7.43;1.80;;;;;;;;;;5093198;28;20401;-67
2023/11/06 09:27:55;;;;;;;8.60;2.47;;;;;;;;;;5082523;28;20409;-67
2023/11/06 09:30:22;;;;;;;7.20;1.95;;;;;;;;;;5091270;28;20056;-67
2023/11/06 09:32:49;;;;;;;7.35;1.90;;;;;;;;;;5079490;28;20056;-66
2023/11/06 09:35:16;;;;;;;5.50;1.88;;;;;;;;;;5077960;28;20047;-66
2023/11/06 09:37:44;;;;;;;5.68;1.90;;;;;;;;;;5081593;28;20102;-66
2023/11/06 09:40:19;;;;;;;7.40;1.60;;;;;;;;;;5079160;28;20049;-66
2023/11/06 09:42:46;;;;;;;8.20;2.20;;;;;;;;;;5092231;28;20401;-66
2023/11/06 09:45:13;;;;;;;7.55;1.60;;;;;;;;;;5079018;28;20045;-66
2023/11/06 09:47:45;;;;;;;5.72;1.70;;;;;;;;;;5090288;28;20055;-66
2023/11/06 09:50:14;;;;;;;5.97;1.90;;;;;;;;;;5089416;28;20058;-66
2023/11/06 09:52:41;;;;;;;7.05;2.15;;;;;;;;;;5097113;28;20059;-66
2023/11/06 09:55:11;;;;;;;5.90;1.80;;;;;;;;;;5098917;28;20488;-66
2023/11/06 09:57:38;;;;;;;7.82;1.60;;;;;;;;;;5090428;28;20051;-66
2023/11/06 10:00:09;;;;;;;8.73;2.05;;;;;;;;;;5101061;28;20511;-66
2023/11/06 10:02:35;;;;;;;6.53;1.35;;;;;;;;;;5089171;28;20052;-66
2023/11/06 10:05:03;;;;;;;7.63;2.13;;;;;;;;;;5093342;28;20067;-66
2023/11/06 10:07:39;;;;;;;6.72;1.67;;;;;;;;;;5082351;28;20060;-66
2023/11/06 10:10:12;;;;;;;5.35;1.42;;;;;;;;;;5095345;28;20056;-66
2023/11/06 10:12:39;;;;;;;5.88;1.42;;;;;;;;;;5088086;28;20412;-66
2023/11/06 10:15:07;;;;;;;5.00;1.30;;;;;;;;;;5088870;28;20055;-66
2023/11/06 10:17:34;;;;;;;5.63;1.65;;;;;;;;;;5089048;28;20059;-66
2023/11/06 10:20:05;;;;;;;8.85;1.95;;;;;;;;;;5087975;28;20059;-66
2023/11/06 10:22:32;;;;;;;6.13;1.85;;;;;;;;;;5095973;28;20060;-66
2023/11/06 10:24:59;;;;;;;5.45;1.50;;;;;;;;;;5091650;28;20052;-66
2023/11/06 10:27:29;;;;;;;5.05;1.55;;;;;;;;;;5090381;28;20126;-66
2023/11/06 10:29:59;;;;;;;6.65;1.65;;;;;;;;;;5091356;28;20059;-65
2023/11/06 10:32:27;;;;;;;6.68;1.33;;;;;;;;;;5083292;28;20051;-65
2023/11/06 10:34:53;;;;;;;6.50;1.70;;;;;;;;;;5090047;28;20052;-65
2023/11/06 10:37:27;;;;;;;8.88;1.88;;;;;;;;;;5096555;28;20055;-65
2023/11/06 10:39:54;;;;;;;5.38;1.83;;;;;;;;;;5108548;28;20051;-65
2023/11/06 10:42:22;;;;;;;10.98;2.42;;;;;;;;;;5087061;28;20048;-65
2023/11/06 10:44:55;;;;;;;6.43;1.52;;;;;;;;;;5091379;28;20053;-66
2023/11/06 10:47:25;;;;;;;9.80;2.05;;;;;;;;;;5077360;28;20054;-66
2023/11/06 10:49:55;;;;;;;5.55;1.67;;;;;;;;;;5079736;28;20492;-66
2023/11/06 10:52:24;;;;;;;5.75;1.80;;;;;;;;;;5091725;28;20052;-66
2023/11/06 10:54:54;;;;;;;4.80;1.48;;;;;;;;;;5090064;28;20052;-67
2023/11/06 10:57:21;;;;;;;7.90;1.60;;;;;;;;;;5081250;28;20135;-67
2023/11/06 10:59:51;;;;;;;7.47;2.30;;;;;;;;;;5087719;28;20485;-68
2023/11/06 11:02:31;;;;;;;7.45;1.67;;;;;;;;;;5083183;28;20056;-67
2023/11/06 11:04:59;;;;;;;8.75;1.60;;;;;;;;;;5097080;28;20424;-67
2023/11/06 11:07:27;;;;;;;7.00;1.67;;;;;;;;;;5089916;28;20048;-67
2023/11/06 11:09:54;;;;;;;5.95;1.70;;;;;;;;;;5094340;28;20053;-67
2023/11/06 11:12:21;;;;;;;5.78;1.50;;;;;;;;;;5074500;28;20057;-67
2023/11/06 11:14:48;;;;;;;7.38;1.88;;;;;;;;;;5095570;28;20048;-67
2023/11/06 11:17:16;;;;;;;8.35;1.90;;;;;;;;;;5084805;28;20059;-68
2023/11/06 11:19:43;;;;;;;4.45;1.45;;;;;;;;;;5083032;28;20060;-67
2023/11/06 11:22:10;;;;;;;8.48;1.75;;;;;;;;;;5082788;28;20059;-67
2023/11/06 11:24:55;;;;;;;5.18;1.50;;;;;;;;;;5088191;28;20393;-68
2023/11/06 11:27:23;;;;;;;6.00;1.85;;;;;;;;;;5091149;28;20077;-68
2023/11/06 11:30:06;;;;;;;7.05;1.63;;;;;;;;;;5080075;28;20044;-67
2023/11/06 11:32:47;;;;;;;6.50;1.67;;;;;;;;;;5086391;28;20044;-67
2023/11/06 11:35:32;;;;;;;5.25;1.70;;;;;;;;;;5075883;28;20048;-67
2023/11/06 11:37:59;;;;;;;7.22;1.98;;;;;;;;;;5084732;28;20419;-68
2023/11/06 11:40:37;;;;;;;8.40;1.85;;;;;;;;;;5087371;28;20055;-67
2023/11/06 11:43:19;;;;;;;8.30;1.75;;;;;;;;;;5075760;28;20056;-67
2023/11/06 11:45:45;;;;;;;7.13;1.80;;;;;;;;;;5081054;28;20045;-67
2023/11/06 11:48:15;;;;;;;5.68;1.50;;;;;;;;;;5083862;28;20063;-67
2023/11/06 11:50:42;;;;;;;;;;;;;;;;;;5088608;28;20056;-67
2023/11/06 11:53:08;;;;;;;5.15;1.45;;;;;;;;;;5076953;28;19927;-67
2023/11/06 11:55:37;;;;;;;5.07;1.30;;;;;;;;;;5086611;28;20063;-67
2023/11/06 11:58:06;;;;;;;5.05;1.42;;;;;;;;;;5083706;28;20055;-67
2023/11/06 12:00:33;;;;;;;5.90;1.70;;;;;;;;;;5077257;28;20060;-67
2023/11/06 12:03:07;;;;;;;7.72;1.73;;;;;;;;;;5093707;28;20997;-67
2023/11/06 12:05:36;;;;;;;4.47;1.50;;;;;;;;;;5075130;28;20048;-66
2023/11/06 12:08:20;;;;;;;6.82;2.03;;;;;;;;;;5076401;28;20059;-66
2023/11/06 12:10:48;;;;;;;5.20;1.38;;;;;;;;;;5077322;28;20052;-66
2023/11/06 12:13:15;;;;;;;4.22;1.55;;;;;;;;;;5075040;28;20452;-66
2023/11/06 12:15:42;;;;;;;5.03;1.40;;;;;;;;;;5086152;28;20045;-66
2023/11/06 12:18:09;;;;;;;5.63;1.30;;;;;;;;;;5082778;28;20048;-66
2023/11/06 12:20:37;;;;;;;5.13;1.40;;;;;;;;;;5079125;28;20052;-66
2023/11/06 12:23:04;;;;;;;5.43;1.38;;;;;;;;;;5082428;28;20075;-66
2023/11/06 12:25:33;;;;;;;6.25;1.55;;;;;;;;;;5080152;28;20055;-65
2023/11/06 12:28:03;;;;;;;4.40;1.27;;;;;;;;;;5078449;28;20048;-66
2023/11/06 12:30:30;;;;;;;4.63;1.35;;;;;;;;;;5085881;28;20059;-66
2023/11/06 12:32:56;;;;;;;6.57;1.90;;;;;;;;;;5084955;28;20063;-66
2023/11/06 12:35:23;;;;;;;6.70;1.50;;;;;;;;;;5096504;28;20051;-66
2023/11/06 12:37:55;;;;;;;6.00;1.33;;;;;;;;;;5089471;28;20405;-66
2023/11/06 12:40:23;;;;;;;3.85;1.35;;;;;;;;;;5086484;28;20051;-66
2023/11/06 12:42:51;;;;;;;4.82;1.75;;;;;;;;;;5093540;28;20044;-67
2023/11/06 12:45:31;;;;;;;6.47;1.30;;;;;;;;;;5093178;28;20048;-66
2023/11/06 12:47:58;;;;;;;5.15;1.30;;;;;;;;;;5088948;28;20119;-66
2023/11/06 12:50:26;;;;;;;3.67;1.00;;;;;;;;;;5087807;28;20047;-66
2023/11/06 12:52:53;;;;;;;5.30;1.20;;;;;;;;;;5086850;28;20052;-66
2023/11/06 12:55:22;;;;;;;4.88;1.15;;;;;;;;;;5093373;28;20052;-66
2023/11/06 12:57:50;;;;;;;7.80;1.60;;;;;;;;;;5090693;28;20047;-66
2023/11/06 13:00:27;;;;;;;3.80;0.90;;;;;;;;;;5086670;28;20048;-67
2023/11/06 13:02:55;;;;;;;4.40;1.30;;;;;;;;;;5083178;28;20067;-66
2023/11/06 13:05:23;;;;;;;4.00;1.20;;;;;;;;;;5078961;28;20489;-66
2023/11/06 13:07:51;;;;;;;5.03;1.40;;;;;;;;;;5085167;28;20049;-66
2023/11/06 13:10:18;;;;;;;3.90;0.90;;;;;;;;;;5078964;28;20052;-66
2023/11/06 13:12:47;;;;;;;5.55;1.17;;;;;;;;;;5077473;28;20393;-66
2023/11/06 13:15:14;;;;;;;3.20;1.30;;;;;;;;;;5091789;28;20067;-66
2023/11/06 13:17:42;;;;;;;4.45;1.40;;;;;;;;;;5088338;28;20055;-66
2023/11/06 13:20:24;;;;;;;3.28;1.10;;;;;;;;;;5084969;28;20059;-66
2023/11/06 13:22:52;;;;;;;4.32;1.10;;;;;;;;;;5083184;28;20056;-66
2023/11/06 13:25:20;;;;;;;2.10;0.90;;;;;;;;;;5085513;28;20059;-67
2023/11/06 13:27:48;;;;;;;4.60;1.00;;;;;;;;;;5091371;28;20044;-66
2023/11/06 13:30:15;;;;;;;4.55;1.20;;;;;;;;;;5088667;28;20049;-66
2023/11/06 13:32:42;;;;;;;2.45;0.90;;;;;;;;;;5082735;28;20048;-66
2023/11/06 13:35:11;;;;;;;3.30;0.82;;;;;;;;;;5088067;28;20485;-66
2023/11/06 13:37:38;;;;;;;3.65;1.10;;;;;;;;;;5093353;28;20052;-65
2023/11/06 13:40:14;;;;;;;2.55;0.88;;;;;;;;;;5092723;28;20044;-66
2023/11/06 13:42:42;;;;;;;2.35;1.00;;;;;;;;;;5081552;28;20055;-65
2023/11/06 13:45:11;;;;;;;2.63;0.93;;;;;;;;;;5081919;28;20052;-66
2023/11/06 13:47:38;;;;;;;2.28;0.80;;;;;;;;;;5080982;28;20040;-66
2023/11/06 13:50:17;;;;;;;2.88;1.05;;;;;;;;;;5091533;28;20068;-65
2023/11/06 13:52:46;;;;;;;2.78;1.10;;;;;;;;;;5081772;28;20048;-66
2023/11/06 13:55:15;;;;;;;4.05;1.02;;;;;;;;;;5086053;28;20403;-66
2023/11/06 13:57:42;;;;;;;3.15;1.00;;;;;;;;;;5082603;28;20044;-66
2023/11/06 14:00:27;;;;;;;2.13;0.85;;;;;;;;;;5092972;28;20067;-66
2023/11/06 14:02:54;;;;;;;2.83;0.70;;;;;;;;;;5089212;28;20048;-66
2023/11/06 14:05:22;;;;;;;3.67;1.23;;;;;;;;;;5092126;28;20048;-66
2023/11/06 14:07:50;;;;;;;2.05;0.85;;;;;;;;;;5091693;28;20469;-66
2023/11/06 14:10:28;;;;;;;2.58;1.63;;;;;;;;;;5096864;28;20080;-66
2023/11/06 14:12:55;;;;;;;2.78;0.80;;;;;;;;;;5093800;28;20063;-66
2023/11/06 14:15:24;;;;;;;2.53;0.70;;;;;;;;;;5089499;28;20078;-66
2023/11/06 14:17:53;;;;;;;1.30;0.70;;;;;;;;;;5093426;28;20044;-66
2023/11/06 14:20:20;;;;;;;2.55;1.77;;;;;;;;;;5088603;28;20567;-66
2023/11/06 14:22:47;;;;;;;2.40;0.75;;;;;;;;;;5084310;28;20071;-66
2023/11/06 14:25:14;;;;;;;2.33;0.90;;;;;;;;;;5087845;28;20539;-66
2023/11/06 14:27:42;;;;;;;3.10;0.90;;;;;;;;;;5079234;28;20048;-66
2023/11/06 14:30:09;;;;;;;2.63;0.82;;;;;;;;;;5077671;28;20059;-66
2023/11/06 14:32:37;;;;;;;2.05;0.80;;;;;;;;;;5090886;28;20059;-66
2023/11/06 14:35:06;;;;;;;3.13;0.95;;;;;;;;;;5089145;28;20056;-66
2023/11/06 14:37:36;;;;;;;3.83;0.85;;;;;;;;;;5083307;28;20049;-66
2023/11/06 14:40:05;;;;;;;1.77;0.70;;;;;;;;;;5081761;28;20051;-66
2023/11/06 14:42:34;;;;;;;1.70;0.63;;;;;;;;;;5083478;28;20048;-66
2023/11/06 14:45:01;;;;;;;1.60;0.80;;;;;;;;;;5098376;28;20059;-66
2023/11/06 14:47:28;;;;;;;3.08;0.90;;;;;;;;;;5087674;28;20059;-66